Time;durP1;ratioP1;P1;durP2;ratioP2;P2;SDS_P1;SDS_P2;PMS_P1;PMS_P2;Temp;Humidity;BMP_temperature;BMP_pressure;BME280_temperature;BME280_humidity;BME280_pressure;Samples;Min_cycle;Max_cycle;Signal;HPM_P1;HPM_P2
2021/08/30 00:00:13;;;;;;;0.30;0.30;;;9.10;99.90;;;;;;5050979;28;20205;-73
2021/08/30 00:02:39;;;;;;;0.30;0.30;;;9.10;99.90;;;;;;5053145;28;20201;-73
2021/08/30 00:05:06;;;;;;;2.70;1.08;;;9.10;99.90;;;;;;5046289;28;20214;-73
2021/08/30 00:07:31;;;;;;;0.20;0.20;;;9.10;99.90;;;;;;5047817;28;20256;-73
2021/08/30 00:09:57;;;;;;;0.25;0.25;;;9.00;99.90;;;;;;5045798;28;20684;-73
2021/08/30 00:12:23;;;;;;;0.75;0.75;;;9.00;99.90;;;;;;5032960;28;20266;-73
2021/08/30 00:14:49;;;;;;;0.40;0.40;;;9.00;99.90;;;;;;5052345;28;20193;-73
2021/08/30 00:17:14;;;;;;;0.60;0.60;;;8.90;99.90;;;;;;5034346;28;20248;-73
2021/08/30 00:19:40;;;;;;;0.50;0.50;;;8.90;99.90;;;;;;5034336;28;20213;-73
2021/08/30 00:22:06;;;;;;;0.30;0.30;;;8.80;99.90;;;;;;5051643;28;20213;-73
2021/08/30 00:24:32;;;;;;;0.40;0.40;;;8.80;99.90;;;;;;5051927;28;20209;-73
2021/08/30 00:26:57;;;;;;;0.40;0.40;;;8.80;99.90;;;;;;5052088;28;20205;-73
2021/08/30 00:29:26;;;;;;;0.20;0.20;;;8.70;99.90;;;;;;5050309;28;20205;-73
2021/08/30 00:31:56;;;;;;;0.30;0.30;;;8.70;99.90;;;;;;5033830;28;20202;-73
2021/08/30 00:34:22;;;;;;;0.57;0.38;;;8.60;99.90;;;;;;5051498;28;20212;-73
2021/08/30 00:36:48;;;;;;;0.73;0.45;;;8.60;99.90;;;;;;5050633;28;20553;-73
2021/08/30 00:39:21;;;;;;;4.43;0.38;;;8.60;99.90;;;;;;5052874;28;20209;-73
2021/08/30 00:41:49;;;;;;;1.25;0.45;;;8.60;99.90;;;;;;5049654;28;20247;-73
2021/08/30 00:44:15;;;;;;;1.05;0.95;;;8.60;99.90;;;;;;5035073;28;20220;-73
2021/08/30 00:46:41;;;;;;;0.40;0.40;;;8.50;99.90;;;;;;5032503;28;20201;-73
2021/08/30 00:49:06;;;;;;;1.00;0.85;;;8.50;99.90;;;;;;5049027;28;20207;-73
2021/08/30 00:51:33;;;;;;;0.30;0.30;;;8.50;99.90;;;;;;5032463;28;20576;-73
2021/08/30 00:53:59;;;;;;;0.35;0.30;;;8.50;99.90;;;;;;5051838;28;20281;-73
2021/08/30 00:56:28;;;;;;;1.30;0.77;;;8.50;99.90;;;;;;5046368;28;20691;-72
2021/08/30 00:58:54;;;;;;;0.25;0.25;;;8.50;99.90;;;;;;5051746;28;20693;-73
2021/08/30 01:01:20;;;;;;;0.68;0.57;;;8.50;99.90;;;;;;5052225;28;20594;-71
2021/08/30 01:03:46;;;;;;;1.20;1.10;;;8.50;99.90;;;;;;5068676;23;20241;-72
2021/08/30 01:06:48;;;;;;;0.82;0.82;;;8.40;99.90;;;;;;5070276;28;20719;-72
2021/08/30 01:09:52;;;;;;;0.38;0.38;;;8.40;99.90;;;;;;5058308;28;20203;-71
2021/08/30 01:12:27;;;;;;;0.30;0.30;;;8.40;99.90;;;;;;5056913;28;20208;-71
2021/08/30 01:15:13;;;;;;;0.32;0.32;;;8.40;99.90;;;;;;5052349;28;20588;-71
2021/08/30 01:17:40;;;;;;;0.40;0.40;;;8.30;99.90;;;;;;5043590;28;20232;-71
2021/08/30 01:20:14;;;;;;;0.40;0.40;;;8.20;99.90;;;;;;5045933;28;20224;-71
2021/08/30 01:22:44;;;;;;;0.30;0.30;;;8.20;99.90;;;;;;5068286;28;20213;-71
2021/08/30 01:25:14;;;;;;;0.20;0.20;;;8.20;99.90;;;;;;5070344;28;20205;-71
2021/08/30 01:27:43;;;;;;;0.60;0.60;;;8.20;99.90;;;;;;5070285;28;20266;-71
2021/08/30 01:30:12;;;;;;;0.20;0.20;;;8.20;99.90;;;;;;5071461;28;20196;-71
2021/08/30 01:32:41;;;;;;;0.30;0.30;;;8.20;99.90;;;;;;5063419;28;20576;-71
2021/08/30 01:35:16;;;;;;;0.73;0.70;;;8.20;99.90;;;;;;5059614;28;20212;-71
2021/08/30 01:37:45;;;;;;;0.30;0.30;;;8.20;99.90;;;;;;5070189;28;20292;-71
2021/08/30 01:40:13;;;;;;;0.65;0.65;;;8.20;99.90;;;;;;5071068;28;20246;-71
2021/08/30 01:42:42;;;;;;;0.20;0.20;;;8.20;99.90;;;;;;5055756;28;20667;-71
2021/08/30 01:45:10;;;;;;;0.30;0.30;;;8.20;99.90;;;;;;5055831;28;20196;-71
2021/08/30 01:47:37;;;;;;;4.53;1.33;;;8.20;99.90;;;;;;5074828;28;20288;-71
2021/08/30 01:50:05;;;;;;;0.77;0.77;;;8.20;99.90;;;;;;5057024;28;20201;-71
2021/08/30 01:52:56;;;;;;;0.75;0.75;;;8.10;99.90;;;;;;5055908;28;20211;-71
2021/08/30 01:55:47;;;;;;;0.20;0.20;;;8.20;99.90;;;;;;5066062;28;20320;-71
2021/08/30 02:00:52;;;;;;;0.45;0.45;;;8.10;99.90;;;;;;5071595;28;20285;-71
2021/08/30 02:03:27;;;;;;;0.88;0.85;;;8.00;99.90;;;;;;5086489;28;20259;-71
2021/08/30 02:06:04;;;;;;;0.70;0.60;;;8.00;99.90;;;;;;5093745;28;20203;-71
2021/08/30 02:08:31;;;;;;;0.70;0.70;;;8.10;99.90;;;;;;5092080;28;20227;-70
2021/08/30 02:10:59;;;;;;;0.20;0.20;;;8.10;99.90;;;;;;5093783;28;20307;-70
2021/08/30 02:13:28;;;;;;;0.30;0.30;;;8.20;99.90;;;;;;5093663;28;20256;-70
2021/08/30 02:15:59;;;;;;;0.30;0.30;;;8.20;99.90;;;;;;5093557;28;20540;-70
2021/08/30 02:18:43;;;;;;;0.20;0.20;;;8.20;99.90;;;;;;5094688;28;20203;-70
2021/08/30 02:21:22;;;;;;;0.68;0.52;;;8.20;99.90;;;;;;5074078;28;20245;-70
2021/08/30 02:24:09;;;;;;;0.55;0.55;;;8.20;99.90;;;;;;5077306;28;20597;-71
2021/08/30 02:26:46;;;;;;;0.50;0.45;;;8.20;99.90;;;;;;5066923;28;20607;-71
2021/08/30 02:29:16;;;;;;;1.98;1.20;;;8.10;99.90;;;;;;5093418;28;20207;-71
2021/08/30 02:31:46;;;;;;;0.50;0.50;;;8.10;99.90;;;;;;5076258;28;20219;-70
2021/08/30 02:34:12;;;;;;;0.60;0.60;;;8.10;99.90;;;;;;5093131;28;20607;-72
2021/08/30 02:36:39;;;;;;;0.30;0.30;;;8.10;99.90;;;;;;5094436;28;20203;-70
2021/08/30 02:39:05;;;;;;;0.30;0.30;;;8.10;99.90;;;;;;5074777;28;20334;-70
2021/08/30 02:41:31;;;;;;;0.43;0.43;;;8.10;99.90;;;;;;5094284;28;20231;-71
2021/08/30 02:43:57;;;;;;;0.20;0.20;;;8.10;99.90;;;;;;5075000;28;20230;-71
2021/08/30 02:46:23;;;;;;;0.30;0.30;;;8.20;99.90;;;;;;5093059;28;20200;-71
2021/08/30 02:48:52;;;;;;;0.65;0.65;;;8.20;99.90;;;;;;5093056;28;20236;-71
2021/08/30 02:51:19;;;;;;;0.20;0.20;;;8.20;99.90;;;;;;5075842;28;20196;-71
2021/08/30 02:53:46;;;;;;;0.32;0.32;;;8.20;99.90;;;;;;5091944;28;20591;-71
2021/08/30 02:56:12;;;;;;;0.40;0.40;;;8.10;99.90;;;;;;5093966;28;20192;-72
2021/08/30 02:58:38;;;;;;;0.30;0.30;;;8.10;99.90;;;;;;5093559;28;20268;-71
2021/08/30 03:01:04;;;;;;;0.22;0.22;;;8.00;99.90;;;;;;5092552;28;20673;-71
2021/08/30 03:03:30;;;;;;;0.30;0.30;;;8.00;99.90;;;;;;5074706;28;20720;-71
2021/08/30 03:05:56;;;;;;;0.30;0.30;;;8.00;99.90;;;;;;5092773;28;20196;-71
2021/08/30 03:08:22;;;;;;;0.50;0.50;;;7.90;99.90;;;;;;5092313;28;20258;-71
2021/08/30 03:10:48;;;;;;;0.30;0.30;;;7.90;99.90;;;;;;5093633;28;20212;-71
2021/08/30 03:13:15;;;;;;;0.75;0.68;;;7.90;99.90;;;;;;5093780;28;20200;-71
2021/08/30 03:15:45;;;;;;;0.75;0.75;;;7.80;99.90;;;;;;5091075;28;20207;-71
2021/08/30 03:18:12;;;;;;;1.00;0.40;;;7.80;99.90;;;;;;5092378;28;20546;-71
2021/08/30 03:20:39;;;;;;;0.35;0.35;;;7.80;99.90;;;;;;5090864;28;20298;-71
2021/08/30 03:23:06;;;;;;;0.20;0.20;;;7.70;99.90;;;;;;5091190;28;20208;-71
2021/08/30 03:25:34;;;;;;;0.20;0.20;;;7.70;99.90;;;;;;5075307;28;20258;-71
2021/08/30 03:28:03;;;;;;;0.40;0.38;;;7.70;99.90;;;;;;5065272;28;20216;-71
2021/08/30 03:30:29;;;;;;;0.30;0.30;;;7.60;99.90;;;;;;5092026;28;20204;-71
2021/08/30 03:32:57;;;;;;;2.72;1.48;;;7.60;99.90;;;;;;5093209;28;20200;-71
2021/08/30 03:35:23;;;;;;;0.30;0.30;;;7.60;99.90;;;;;;5092820;28;20230;-71
2021/08/30 03:37:50;;;;;;;0.20;0.20;;;7.60;99.90;;;;;;5091562;28;20208;-71
2021/08/30 03:40:16;;;;;;;0.95;0.90;;;7.60;99.90;;;;;;5074881;28;20237;-71
2021/08/30 03:42:43;;;;;;;0.30;0.30;;;7.60;99.90;;;;;;5092801;28;20196;-71
2021/08/30 03:45:12;;;;;;;0.57;0.57;;;7.60;99.90;;;;;;5091603;28;20204;-71
2021/08/30 03:47:39;;;;;;;0.35;0.35;;;7.60;99.90;;;;;;5073253;28;20240;-72
2021/08/30 03:50:06;;;;;;;2.38;0.82;;;7.50;99.90;;;;;;5091814;28;20299;-71
2021/08/30 03:52:34;;;;;;;0.50;0.50;;;7.50;99.90;;;;;;5092904;28;20206;-71
2021/08/30 03:55:00;;;;;;;0.75;0.75;;;7.50;99.90;;;;;;5091737;28;20208;-71
2021/08/30 03:57:26;;;;;;;0.50;0.50;;;7.50;99.90;;;;;;5074695;28;20208;-71
2021/08/30 03:59:58;;;;;;;0.30;0.30;;;7.50;99.90;;;;;;5074703;28;20689;-71
2021/08/30 04:02:28;;;;;;;0.40;0.40;;;7.50;99.90;;;;;;5092112;28;20674;-71
2021/08/30 04:04:54;;;;;;;0.40;0.40;;;7.60;99.90;;;;;;5072905;28;20536;-71
2021/08/30 04:07:21;;;;;;;1.95;0.98;;;7.70;99.90;;;;;;5082542;28;20220;-71
2021/08/30 04:09:50;;;;;;;0.77;0.65;;;7.70;99.90;;;;;;5073137;28;20208;-70
2021/08/30 04:12:21;;;;;;;0.40;0.40;;;7.80;99.90;;;;;;5073087;28;20701;-71
2021/08/30 04:14:48;;;;;;;0.70;0.70;;;7.70;99.90;;;;;;5073075;28;20208;-70
2021/08/30 04:17:14;;;;;;;0.30;0.30;;;7.70;99.90;;;;;;5091167;28;20200;-70
2021/08/30 04:19:40;;;;;;;0.80;0.80;;;7.80;99.90;;;;;;5091028;28;20210;-70
2021/08/30 04:22:06;;;;;;;0.63;0.60;;;7.80;99.90;;;;;;5091717;28;20287;-70
2021/08/30 04:24:32;;;;;;;0.30;0.30;;;7.90;99.90;;;;;;5075064;28;20288;-71
2021/08/30 04:26:57;;;;;;;0.45;0.45;;;7.90;99.90;;;;;;5081661;28;20257;-71
2021/08/30 04:29:23;;;;;;;0.77;0.68;;;8.10;99.90;;;;;;5071484;28;20291;-71
2021/08/30 04:31:49;;;;;;;0.38;0.38;;;8.20;99.90;;;;;;5071319;28;20200;-70
2021/08/30 04:34:21;;;;;;;0.25;0.25;;;8.20;99.90;;;;;;5090311;28;20200;-71
2021/08/30 04:36:47;;;;;;;0.30;0.30;;;8.20;99.90;;;;;;5072609;28;20207;-70
2021/08/30 04:39:12;;;;;;;1.42;0.77;;;8.30;99.90;;;;;;5089627;28;20201;-71
2021/08/30 04:41:38;;;;;;;0.40;0.40;;;8.40;99.90;;;;;;5086316;28;20208;-71
2021/08/30 04:44:05;;;;;;;0.20;0.20;;;8.50;99.90;;;;;;5068262;28;20564;-71
2021/08/30 04:46:31;;;;;;;0.40;0.40;;;8.50;99.90;;;;;;5072815;28;20232;-74
2021/08/30 04:48:56;;;;;;;1.15;0.95;;;8.50;99.90;;;;;;5089829;28;20219;-72
2021/08/30 04:51:22;;;;;;;0.70;0.70;;;8.60;99.90;;;;;;5072623;28;20208;-70
2021/08/30 04:53:48;;;;;;;0.65;0.65;;;8.70;99.90;;;;;;5072286;28;20216;-70
2021/08/30 04:56:13;;;;;;;0.38;0.38;;;8.80;99.90;;;;;;5090775;28;20216;-71
2021/08/30 04:58:39;;;;;;;0.30;0.30;;;8.90;99.90;;;;;;5073717;28;20211;-71
2021/08/30 05:01:06;;;;;;;0.22;0.22;;;9.00;99.90;;;;;;5090589;28;20250;-71
2021/08/30 05:03:32;;;;;;;0.40;0.40;;;9.20;99.90;;;;;;5067285;28;20634;-70
2021/08/30 05:05:57;;;;;;;0.50;0.50;;;9.30;99.90;;;;;;5070640;28;20230;-70
2021/08/30 05:08:23;;;;;;;0.30;0.30;;;9.50;99.90;;;;;;5070077;28;20234;-70
2021/08/30 05:10:49;;;;;;;0.60;0.50;;;9.70;99.90;;;;;;5070259;28;20197;-70
2021/08/30 05:13:14;;;;;;;0.20;0.20;;;9.80;99.90;;;;;;5071503;28;20258;-71
2021/08/30 05:15:40;;;;;;;0.93;0.55;;;10.00;99.90;;;;;;5072063;28;20205;-71
2021/08/30 05:18:06;;;;;;;0.30;0.30;;;10.10;99.90;;;;;;5074157;28;20564;-71
2021/08/30 05:20:31;;;;;;;0.60;0.60;;;10.30;99.90;;;;;;5072733;28;20196;-72
2021/08/30 05:22:57;;;;;;;0.25;0.25;;;10.40;99.90;;;;;;5066648;28;20250;-71
2021/08/30 05:25:22;;;;;;;0.38;0.38;;;10.60;99.90;;;;;;5073835;28;20283;-72
2021/08/30 05:27:51;;;;;;;0.52;0.52;;;10.80;99.90;;;;;;5075253;28;20239;-71
2021/08/30 05:30:17;;;;;;;0.32;0.32;;;11.00;99.90;;;;;;5072857;28;20759;-72
2021/08/30 05:32:43;;;;;;;0.45;0.45;;;11.20;99.90;;;;;;5075269;28;20215;-71
2021/08/30 05:35:09;;;;;;;1.95;0.65;;;11.30;99.90;;;;;;5075383;28;20201;-74
2021/08/30 05:37:35;;;;;;;0.65;0.60;;;11.40;99.90;;;;;;5073517;28;20299;-71
2021/08/30 05:40:00;;;;;;;0.52;0.52;;;11.50;99.90;;;;;;5074424;28;20286;-71
2021/08/30 05:42:26;;;;;;;0.93;0.88;;;11.60;99.90;;;;;;5073776;28;20219;-71
2021/08/30 05:44:52;;;;;;;0.57;0.57;;;11.70;99.90;;;;;;5072364;28;20288;-71
2021/08/30 05:47:17;;;;;;;0.60;0.60;;;11.80;99.90;;;;;;5073378;28;20647;-71
2021/08/30 05:49:43;;;;;;;0.63;0.47;;;11.90;99.90;;;;;;5072132;28;20299;-71
2021/08/30 05:52:12;;;;;;;0.30;0.30;;;12.00;99.90;;;;;;5063677;28;20251;-71
2021/08/30 05:54:38;;;;;;;0.30;0.30;;;12.00;99.90;;;;;;5066020;28;20240;-71
2021/08/30 05:57:03;;;;;;;0.20;0.20;;;12.10;99.90;;;;;;5073756;28;20624;-71
2021/08/30 05:59:29;;;;;;;0.30;0.30;;;12.20;99.90;;;;;;5071946;28;20274;-71
2021/08/30 06:01:55;;;;;;;0.90;0.60;;;12.20;99.90;;;;;;5073380;28;20275;-71
2021/08/30 06:04:20;;;;;;;2.42;1.52;;;12.30;99.90;;;;;;5092080;28;20279;-71
2021/08/30 06:06:46;;;;;;;1.20;0.73;;;12.40;99.90;;;;;;5076491;28;20200;-71
2021/08/30 06:09:12;;;;;;;0.50;0.50;;;12.50;99.90;;;;;;5093366;28;20204;-72
2021/08/30 06:11:37;;;;;;;0.95;0.88;;;12.60;99.90;;;;;;5094668;28;20208;-71
2021/08/30 06:14:03;;;;;;;0.50;0.50;;;12.70;99.90;;;;;;5093219;28;20565;-70
2021/08/30 06:16:29;;;;;;;0.52;0.52;;;12.80;99.90;;;;;;5093188;28;20193;-72
2021/08/30 06:18:54;;;;;;;0.38;0.38;;;12.90;99.90;;;;;;5093443;28;20192;-72
2021/08/30 06:21:20;;;;;;;0.45;0.45;;;13.00;99.90;;;;;;5074103;28;20227;-71
2021/08/30 06:23:46;;;;;;;0.50;0.50;;;13.00;99.90;;;;;;5094269;28;20291;-71
2021/08/30 06:26:12;;;;;;;0.30;0.30;;;13.10;99.90;;;;;;5094414;28;20232;-71
2021/08/30 06:28:37;;;;;;;0.73;0.63;;;13.20;99.90;;;;;;5092642;28;20670;-71
2021/08/30 06:31:03;;;;;;;0.77;0.77;;;13.30;99.90;;;;;;5092278;28;20209;-70
2021/08/30 06:33:28;;;;;;;0.45;0.45;;;13.30;99.90;;;;;;5094188;28;20269;-69
2021/08/30 06:35:54;;;;;;;0.30;0.30;;;13.40;99.90;;;;;;5094300;28;20268;-70
2021/08/30 06:38:21;;;;;;;0.30;0.30;;;13.60;99.90;;;;;;5094205;28;20215;-71
2021/08/30 06:40:46;;;;;;;0.20;0.20;;;13.70;99.90;;;;;;5073816;28;20238;-70
2021/08/30 06:43:12;;;;;;;0.57;0.55;;;13.80;99.90;;;;;;5094149;28;20215;-72
2021/08/30 06:45:38;;;;;;;0.45;0.45;;;13.90;99.90;;;;;;5074265;28;20204;-71
2021/08/30 06:48:04;;;;;;;0.40;0.40;;;14.00;99.90;;;;;;5066933;28;20262;-71
2021/08/30 06:50:31;;;;;;;0.20;0.20;;;14.10;99.90;;;;;;5064375;28;20743;-70
2021/08/30 06:52:57;;;;;;;0.20;0.20;;;14.10;99.90;;;;;;5074424;28;20277;-71
2021/08/30 06:55:23;;;;;;;0.47;0.47;;;14.20;99.90;;;;;;5075443;28;20670;-71
2021/08/30 06:57:49;;;;;;;0.57;0.50;;;14.40;99.90;;;;;;5089467;28;20238;-71
2021/08/30 07:00:17;;;;;;;1.45;0.98;;;14.60;99.90;;;;;;5080743;28;20204;-71
2021/08/30 07:02:44;;;;;;;0.38;0.38;;;14.70;99.90;;;;;;5091788;28;20211;-71
2021/08/30 07:05:10;;;;;;;0.43;0.43;;;14.70;99.90;;;;;;5093660;28;20261;-71
2021/08/30 07:07:36;;;;;;;1.27;0.60;;;14.80;99.90;;;;;;5069890;28;20245;-71
2021/08/30 07:10:03;;;;;;;1.10;0.40;;;15.00;99.90;;;;;;5087763;28;20234;-70
2021/08/30 07:12:29;;;;;;;0.47;0.40;;;15.20;99.90;;;;;;5057050;28;20192;-71
2021/08/30 07:14:54;;;;;;;0.13;0.13;;;15.30;99.90;;;;;;5074594;28;20700;-71
2021/08/30 07:17:20;;;;;;;0.30;0.30;;;15.40;99.90;;;;;;5074861;28;20615;-71
2021/08/30 07:19:46;;;;;;;0.68;0.45;;;15.60;99.90;;;;;;5073879;28;20314;-71
2021/08/30 07:22:12;;;;;;;0.38;0.30;;;15.50;99.90;;;;;;5084354;28;20208;-71
2021/08/30 07:24:38;;;;;;;1.05;0.93;;;15.60;99.90;;;;;;5090073;28;20204;-72
2021/08/30 07:27:03;;;;;;;0.10;0.10;;;15.80;99.90;;;;;;5073705;28;20688;-70
2021/08/30 07:29:33;;;;;;;0.40;0.40;;;15.90;99.90;;;;;;5091928;28;20197;-71
2021/08/30 07:31:59;;;;;;;0.10;0.10;;;16.00;99.90;;;;;;5092212;28;20264;-75
2021/08/30 07:34:25;;;;;;;0.90;0.80;;;16.10;99.90;;;;;;5074157;28;20203;-79
2021/08/30 07:36:53;;;;;;;0.43;0.40;;;16.20;99.90;;;;;;5075169;28;20211;-79
2021/08/30 07:39:19;;;;;;;0.65;0.57;;;16.30;99.90;;;;;;5082814;28;20220;-77
2021/08/30 07:41:46;;;;;;;1.00;0.40;;;16.50;99.90;;;;;;5066381;28;20208;-79
2021/08/30 07:44:12;;;;;;;1.63;0.55;;;16.70;99.90;;;;;;5072323;28;20207;-78
2021/08/30 07:46:38;;;;;;;0.10;0.10;;;17.00;99.90;;;;;;5091492;28;20416;-78
2021/08/30 07:49:04;;;;;;;0.38;0.38;;;17.30;99.90;;;;;;5093144;28;20204;-78
2021/08/30 07:51:30;;;;;;;0.20;0.20;;;17.50;99.90;;;;;;5091595;28;20200;-78
2021/08/30 07:53:57;;;;;;;1.10;0.40;;;17.70;99.90;;;;;;5092940;28;20203;-79
2021/08/30 07:56:23;;;;;;;0.47;0.47;;;18.20;99.90;;;;;;5073194;28;20212;-78
2021/08/30 07:58:49;;;;;;;0.50;0.50;;;18.40;99.90;;;;;;5074374;28;20686;-78
2021/08/30 08:01:15;;;;;;;0.75;0.57;;;18.30;99.90;;;;;;5090406;28;20200;-77
2021/08/30 08:03:40;;;;;;;0.57;0.57;;;18.30;99.90;;;;;;5090776;28;20244;-77
2021/08/30 08:06:06;;;;;;;1.00;0.60;;;18.30;99.90;;;;;;5092677;28;20210;-70
2021/08/30 08:08:32;;;;;;;0.30;0.30;;;18.40;99.90;;;;;;5073022;28;20307;-71
2021/08/30 08:10:58;;;;;;;0.13;0.13;;;18.40;99.90;;;;;;5091252;28;20208;-71
2021/08/30 08:13:23;;;;;;;0.20;0.20;;;18.50;99.90;;;;;;5082187;28;20204;-71
2021/08/30 08:15:50;;;;;;;0.20;0.20;;;18.50;99.90;;;;;;5091098;28;20204;-71
2021/08/30 08:18:16;;;;;;;0.40;0.40;;;18.60;99.90;;;;;;5091192;28;20204;-71
2021/08/30 08:20:42;;;;;;;0.13;0.13;;;18.70;99.90;;;;;;5071581;28;20204;-71
2021/08/30 08:23:08;;;;;;;0.20;0.20;;;18.70;99.90;;;;;;5074466;28;20208;-71
2021/08/30 08:25:34;;;;;;;0.90;0.85;;;18.80;99.90;;;;;;5091136;28;20265;-71
2021/08/30 08:28:04;;;;;;;1.60;0.50;;;19.00;99.90;;;;;;5091083;28;20215;-71
2021/08/30 08:30:30;;;;;;;2.25;0.73;;;19.00;99.90;;;;;;5083141;28;20193;-71
2021/08/30 08:32:57;;;;;;;0.10;0.10;;;19.20;99.90;;;;;;5063281;28;20230;-70
2021/08/30 08:35:22;;;;;;;0.10;0.10;;;19.30;99.90;;;;;;5090723;28;20200;-72
2021/08/30 08:37:48;;;;;;;0.20;0.20;;;19.30;99.90;;;;;;5092219;28;20213;-72
2021/08/30 08:40:15;;;;;;;1.02;0.60;;;19.50;99.90;;;;;;5090859;28;20200;-71
2021/08/30 08:42:42;;;;;;;0.28;0.28;;;19.70;99.90;;;;;;5072539;28;20691;-71
2021/08/30 08:45:11;;;;;;;0.17;0.17;;;19.80;99.90;;;;;;5090393;28;20203;-71
2021/08/30 08:47:38;;;;;;;0.20;0.20;;;20.10;99.90;;;;;;5072325;28;20242;-71
2021/08/30 08:50:09;;;;;;;0.28;0.28;;;20.30;99.90;;;;;;5072771;28;20557;-71
2021/08/30 08:52:36;;;;;;;0.10;0.10;;;20.30;99.90;;;;;;5073370;28;20284;-71
2021/08/30 08:55:03;;;;;;;6.75;1.17;;;20.40;99.90;;;;;;5072556;28;20287;-71
2021/08/30 08:57:30;;;;;;;0.10;0.10;;;20.40;99.90;;;;;;5091894;28;20208;-71
2021/08/30 09:00:10;;;;;;;0.77;0.20;;;20.50;99.90;;;;;;5072758;28;20261;-72
2021/08/30 09:02:36;;;;;;;1.48;0.45;;;20.50;99.90;;;;;;5090801;28;20335;-71
2021/08/30 09:05:07;;;;;;;0.10;0.10;;;20.50;99.90;;;;;;5091303;28;20231;-72
2021/08/30 09:07:38;;;;;;;0.10;0.10;;;20.70;99.90;;;;;;5091131;28;20226;-71
2021/08/30 09:10:11;;;;;;;0.40;0.40;;;21.00;99.90;;;;;;5056161;28;20212;-71
2021/08/30 09:12:37;;;;;;;1.25;0.45;;;21.30;99.90;;;;;;5091451;28;20288;-72
2021/08/30 09:15:13;;;;;;;0.65;0.38;;;21.40;99.90;;;;;;5072570;28;20710;-72
2021/08/30 09:17:53;;;;;;;0.75;0.52;;;21.30;99.90;;;;;;5090837;28;20646;-72
2021/08/30 09:20:22;;;;;;;3.63;0.20;;;21.50;99.90;;;;;;5091440;28;20265;-72
2021/08/30 09:22:48;;;;;;;2.25;0.70;;;21.50;99.90;;;;;;5087501;28;20213;-72
2021/08/30 09:25:15;;;;;;;0.90;0.45;;;21.40;99.90;;;;;;5072590;28;20257;-72
2021/08/30 09:27:44;;;;;;;0.20;0.20;;;21.40;99.90;;;;;;5091756;28;20290;-72
2021/08/30 09:30:12;;;;;;;0.10;0.10;;;21.50;99.90;;;;;;5089483;28;20218;-71
2021/08/30 09:32:41;;;;;;;0.30;0.30;;;21.40;99.90;;;;;;5072400;28;20212;-71
2021/08/30 09:35:08;;;;;;;0.30;0.22;;;21.60;99.90;;;;;;5090500;28;20192;-71
2021/08/30 09:37:39;;;;;;;0.25;0.25;;;21.90;99.90;;;;;;5072062;28;20208;-72
2021/08/30 09:40:12;;;;;;;0.38;0.35;;;22.30;99.90;;;;;;5090508;28;20204;-72
2021/08/30 09:42:49;;;;;;;3.85;0.57;;;22.30;99.90;;;;;;5071900;28;20219;-71
2021/08/30 09:45:17;;;;;;;0.30;0.17;;;22.30;99.90;;;;;;5088942;28;20192;-72
2021/08/30 09:47:50;;;;;;;0.38;0.35;;;22.40;99.90;;;;;;5091029;28;20204;-71
2021/08/30 09:50:17;;;;;;;0.30;0.30;;;22.50;99.90;;;;;;5071724;28;20283;-71
2021/08/30 09:52:42;;;;;;;0.65;0.28;;;22.50;99.90;;;;;;5091189;28;20619;-70
2021/08/30 09:55:08;;;;;;;0.80;0.38;;;22.40;99.90;;;;;;5073242;28;20291;-71
2021/08/30 09:57:36;;;;;;;0.43;0.43;;;22.50;99.90;;;;;;5071682;28;20690;-71
2021/08/30 10:00:04;;;;;;;0.30;0.30;;;22.60;99.90;;;;;;5082189;28;20200;-71
2021/08/30 10:02:31;;;;;;;0.30;0.22;;;22.70;99.90;;;;;;5083974;28;20686;-71
2021/08/30 10:04:59;;;;;;;0.95;0.30;;;22.90;99.90;;;;;;5075392;28;20204;-71
2021/08/30 10:07:28;;;;;;;1.00;0.30;;;23.30;99.90;;;;;;5076479;28;20226;-71
2021/08/30 10:09:54;;;;;;;1.35;0.40;;;23.50;99.90;;;;;;5075399;28;20635;-71
2021/08/30 10:12:20;;;;;;;0.30;0.17;;;23.80;99.90;;;;;;5076766;28;20567;-72
2021/08/30 10:14:48;;;;;;;0.20;0.20;;;24.30;99.90;;;;;;5089211;28;20207;-71
2021/08/30 10:17:17;;;;;;;0.70;0.57;;;24.40;99.90;;;;;;5076831;28;20204;-71
2021/08/30 10:19:42;;;;;;;0.63;0.20;;;24.30;99.90;;;;;;5080878;28;20303;-71
2021/08/30 10:22:19;;;;;;;0.28;0.25;;;24.10;99.90;;;;;;5092227;28;20325;-71
2021/08/30 10:24:46;;;;;;;0.10;0.10;;;24.00;99.90;;;;;;5090745;28;20283;-71
2021/08/30 10:27:12;;;;;;;0.70;0.32;;;23.80;99.90;;;;;;5080105;28;20200;-71
2021/08/30 10:29:40;;;;;;;0.75;0.52;;;23.90;99.90;;;;;;5075189;28;20205;-71
2021/08/30 10:32:08;;;;;;;0.98;0.40;;;24.10;99.90;;;;;;5091691;28;20248;-72
2021/08/30 10:34:38;;;;;;;0.25;0.25;;;24.20;99.90;;;;;;5089348;28;20658;-71
2021/08/30 10:37:04;;;;;;;0.10;0.10;;;24.30;99.90;;;;;;5070606;28;20629;-71
2021/08/30 10:39:38;;;;;;;0.38;0.30;;;24.30;99.90;;;;;;5094303;28;20200;-71
2021/08/30 10:42:04;;;;;;;0.52;0.17;;;24.20;99.90;;;;;;5078353;28;20255;-72
2021/08/30 10:44:31;;;;;;;0.65;0.65;;;24.30;99.90;;;;;;5075005;28;20658;-71
2021/08/30 10:47:00;;;;;;;0.13;0.13;;;24.80;99.90;;;;;;5075103;28;20485;-72
2021/08/30 10:49:26;;;;;;;0.20;0.20;;;25.00;99.90;;;;;;5094338;28;20294;-71
2021/08/30 10:52:10;;;;;;;0.40;0.40;;;25.10;99.90;;;;;;5093246;28;20303;-71
2021/08/30 10:54:36;;;;;;;0.22;0.22;;;25.10;99.90;;;;;;5094051;28;20196;-71
2021/08/30 10:57:03;;;;;;;0.52;0.32;;;25.20;99.90;;;;;;5059603;28;20528;-71
2021/08/30 10:59:31;;;;;;;0.10;0.10;;;25.00;99.90;;;;;;5073653;28;20211;-71
2021/08/30 11:02:00;;;;;;;0.20;0.20;;;25.10;99.90;;;;;;5092398;28;20208;-71
2021/08/30 11:04:36;;;;;;;0.05;0.05;;;25.20;99.90;;;;;;5092559;28;20295;-72
2021/08/30 11:07:04;;;;;;;0.38;0.38;;;25.40;99.90;;;;;;5091147;28;20210;-71
2021/08/30 11:09:30;;;;;;;0.00;0.00;;;25.30;99.90;;;;;;5091101;28;20215;-71
2021/08/30 11:12:10;;;;;;;0.20;0.20;;;25.30;99.90;;;;;;5093931;28;20204;-71
2021/08/30 11:14:36;;;;;;;0.10;0.10;;;25.10;99.90;;;;;;5091029;28;20283;-71
2021/08/30 11:17:03;;;;;;;0.52;0.52;;;25.40;99.90;;;;;;5074841;28;20233;-71
2021/08/30 11:19:29;;;;;;;0.20;0.20;;;25.40;99.90;;;;;;5092022;28;20211;-71
2021/08/30 11:21:58;;;;;;;0.10;0.10;;;25.40;99.90;;;;;;5075200;28;20563;-71
2021/08/30 11:24:37;;;;;;;0.28;0.17;;;25.30;98.90;;;;;;5074031;28;20214;-71
2021/08/30 11:27:09;;;;;;;0.50;0.50;;;25.40;99.10;;;;;;5073806;28;20207;-71
2021/08/30 11:29:44;;;;;;;0.17;0.10;;;25.30;99.90;;;;;;5073963;28;20200;-71
2021/08/30 11:32:10;;;;;;;0.20;0.20;;;25.80;98.00;;;;;;5073981;28;20207;-71
2021/08/30 11:34:37;;;;;;;0.35;0.32;;;25.90;98.20;;;;;;5072519;28;20302;-71
2021/08/30 11:37:07;;;;;;;0.00;0.00;;;25.90;97.70;;;;;;5093056;28;20196;-71
2021/08/30 11:39:35;;;;;;;0.10;0.10;;;26.10;97.20;;;;;;5091740;28;20203;-71
2021/08/30 11:42:07;;;;;;;0.65;0.65;;;26.20;96.30;;;;;;5073595;28;20207;-71
2021/08/30 11:44:34;;;;;;;0.15;0.15;;;26.10;95.70;;;;;;5092937;28;20249;-71
2021/08/30 11:47:03;;;;;;;0.13;0.13;;;26.00;97.30;;;;;;5085475;28;20219;-71
2021/08/30 11:49:38;;;;;;;0.20;0.20;;;26.40;98.20;;;;;;5080550;28;20556;-72
2021/08/30 11:52:05;;;;;;;0.00;0.00;;;26.80;96.10;;;;;;5073482;28;20199;-71
2021/08/30 11:54:34;;;;;;;0.20;0.20;;;26.80;96.40;;;;;;5091240;28;20204;-71
2021/08/30 11:57:13;;;;;;;0.70;0.60;;;26.30;94.20;;;;;;5084055;28;20204;-71
2021/08/30 11:59:40;;;;;;;0.20;0.20;;;25.40;95.40;;;;;;5083267;28;20203;-71
2021/08/30 12:02:08;;;;;;;0.10;0.10;;;25.30;97.20;;;;;;5090884;28;20199;-71
2021/08/30 12:04:36;;;;;;;0.30;0.30;;;25.30;95.50;;;;;;5092250;28;20219;-72
2021/08/30 12:07:08;;;;;;;0.10;0.10;;;25.30;96.90;;;;;;5091245;28;20197;-72
2021/08/30 12:09:39;;;;;;;0.35;0.35;;;25.50;95.10;;;;;;5072799;28;20550;-72
2021/08/30 12:12:28;;;;;;;0.00;0.00;;;25.70;97.10;;;;;;5092420;28;20192;-71
2021/08/30 12:15:08;;;;;;;0.10;0.10;;;26.20;94.80;;;;;;5092366;28;20229;-72
2021/08/30 12:17:41;;;;;;;0.10;0.10;;;26.50;94.60;;;;;;5072657;28;20215;-72
2021/08/30 12:20:11;;;;;;;0.10;0.10;;;26.20;93.30;;;;;;5092603;28;20199;-72
2021/08/30 12:22:40;;;;;;;0.30;0.28;;;25.80;92.80;;;;;;5088766;28;20253;-71
2021/08/30 12:25:10;;;;;;;0.22;0.22;;;25.30;95.10;;;;;;5090587;28;20200;-72
2021/08/30 12:27:43;;;;;;;0.50;0.50;;;25.30;95.40;;;;;;5071214;28;20231;-72
2021/08/30 12:30:25;;;;;;;0.05;0.05;;;25.60;94.90;;;;;;5092197;28;20203;-72
2021/08/30 12:33:00;;;;;;;0.03;0.03;;;25.60;92.80;;;;;;5072919;28;20208;-72
2021/08/30 12:35:29;;;;;;;0.08;0.08;;;25.70;92.80;;;;;;5089614;28;20238;-72
2021/08/30 12:38:01;;;;;;;0.75;0.75;;;26.00;92.90;;;;;;5091193;28;20208;-72
2021/08/30 12:40:28;;;;;;;0.10;0.10;;;26.00;92.90;;;;;;5090564;28;20207;-72
2021/08/30 12:42:55;;;;;;;0.80;0.30;;;26.10;94.20;;;;;;5073856;28;20546;-72
2021/08/30 12:45:21;;;;;;;1.08;0.43;;;26.40;94.50;;;;;;5090482;28;20682;-72
2021/08/30 12:47:47;;;;;;;0.10;0.10;;;26.60;92.30;;;;;;5090707;28;20200;-73
2021/08/30 12:50:13;;;;;;;0.13;0.13;;;26.50;92.50;;;;;;5074051;28;20569;-72
2021/08/30 12:52:39;;;;;;;0.10;0.10;;;26.30;91.90;;;;;;5089969;28;20328;-72
2021/08/30 12:55:08;;;;;;;0.17;0.17;;;25.80;90.50;;;;;;5073715;28;20200;-72
2021/08/30 12:57:34;;;;;;;0.45;0.45;;;25.30;92.30;;;;;;5090751;28;20211;-72